Time;durP1;ratioP1;P1;durP2;ratioP2;P2;SDS_P1;SDS_P2;PMS_P1;PMS_P2;Temp;Humidity;BMP_temperature;BMP_pressure;BME280_temperature;BME280_humidity;BME280_pressure;Samples;Min_cycle;Max_cycle;Signal;HPM_P1;HPM_P2
2021/10/20 00:01:23;;;;;;;2.70;2.50;;;;;;;;;;5078220;28;20210;-65
2021/10/20 00:03:54;;;;;;;3.47;3.00;;;;;;;;;;5081072;28;20208;-65
2021/10/20 00:06:25;;;;;;;2.90;2.70;;;;;;;;;;5073538;28;20224;-65
2021/10/20 00:08:58;;;;;;;3.00;2.80;;;;;;;;;;5085393;28;20321;-65
2021/10/20 00:11:29;;;;;;;2.50;2.30;;;;;;;;;;5087094;28;20422;-65
2021/10/20 00:14:12;;;;;;;3.00;2.70;;;;;;;;;;5088530;28;20232;-64
2021/10/20 00:16:41;;;;;;;4.00;2.70;;;;;;;;;;5092051;28;20193;-64
2021/10/20 00:19:14;;;;;;;2.60;2.40;;;;;;;;;;5079543;28;20605;-65
2021/10/20 00:21:47;;;;;;;2.50;2.30;;;;;;;;;;5096748;28;20566;-65
2021/10/20 00:24:14;;;;;;;3.37;2.80;;;;;;;;;;5048202;28;20278;-65
2021/10/20 00:26:46;;;;;;;3.73;2.80;;;;;;;;;;5076241;28;20209;-65
2021/10/20 00:29:18;;;;;;;2.47;2.20;;;;;;;;;;5067594;28;20194;-64
2021/10/20 00:32:02;;;;;;;2.80;2.60;;;;;;;;;;5072840;28;20296;-64
2021/10/20 00:34:35;;;;;;;2.60;2.40;;;;;;;;;;5070332;28;20202;-64
2021/10/20 00:37:06;;;;;;;3.10;2.80;;;;;;;;;;5066822;28;20230;-65
2021/10/20 00:39:51;;;;;;;2.80;2.60;;;;;;;;;;5083748;28;20289;-65
2021/10/20 00:42:23;;;;;;;8.63;2.67;;;;;;;;;;5068373;28;20777;-65
2021/10/20 00:45:02;;;;;;;2.87;2.57;;;;;;;;;;5084847;28;20228;-65
2021/10/20 00:47:37;;;;;;;2.90;2.67;;;;;;;;;;5048609;28;20209;-65
2021/10/20 00:50:08;;;;;;;3.00;2.50;;;;;;;;;;5062160;28;20291;-65
2021/10/20 00:52:44;;;;;;;2.67;2.47;;;;;;;;;;5071029;28;20533;-65
2021/10/20 00:55:20;;;;;;;3.00;2.30;;;;;;;;;;5082862;28;20197;-65
2021/10/20 00:57:51;;;;;;;2.40;2.20;;;;;;;;;;5071256;28;20208;-65
2021/10/20 01:00:23;;;;;;;2.33;2.13;;;;;;;;;;5066702;28;20213;-66
2021/10/20 01:02:59;;;;;;;2.40;2.20;;;;;;;;;;5071073;28;20189;-65
2021/10/20 01:05:28;;;;;;;2.40;2.20;;;;;;;;;;5064809;28;20200;-65
2021/10/20 01:07:58;;;;;;;2.77;2.30;;;;;;;;;;5069646;28;20205;-65
2021/10/20 01:10:27;;;;;;;2.67;2.47;;;;;;;;;;5066266;28;20333;-65
2021/10/20 01:12:57;;;;;;;2.40;2.20;;;;;;;;;;5066463;28;20218;-65
2021/10/20 01:15:28;;;;;;;2.50;2.30;;;;;;;;;;5051329;28;20228;-65
2021/10/20 01:18:02;;;;;;;2.13;1.93;;;;;;;;;;5052143;28;20638;-65
2021/10/20 01:20:33;;;;;;;2.40;2.20;;;;;;;;;;5067715;28;20240;-65
2021/10/20 01:23:04;;;;;;;2.60;2.40;;;;;;;;;;5060201;28;20240;-65
2021/10/20 01:25:34;;;;;;;2.50;2.30;;;;;;;;;;5066854;28;20643;-66
2021/10/20 01:28:05;;;;;;;2.87;2.67;;;;;;;;;;5084457;28;20208;-63
2021/10/20 01:30:35;;;;;;;2.80;2.53;;;;;;;;;;5089619;28;20228;-65
2021/10/20 01:33:05;;;;;;;2.03;1.83;;;;;;;;;;5097336;28;20220;-65
2021/10/20 01:35:36;;;;;;;2.80;2.53;;;;;;;;;;5084664;28;20196;-64
2021/10/20 01:38:06;;;;;;;2.70;2.50;;;;;;;;;;5086711;28;20206;-65
2021/10/20 01:40:38;;;;;;;2.63;2.43;;;;;;;;;;5089062;28;20290;-64
2021/10/20 01:43:10;;;;;;;2.23;2.03;;;;;;;;;;5087859;28;20208;-65
2021/10/20 01:45:41;;;;;;;2.17;2.00;;;;;;;;;;5085043;28;20213;-65
2021/10/20 01:48:11;;;;;;;2.47;2.27;;;;;;;;;;5087236;28;20216;-64
2021/10/20 01:50:42;;;;;;;2.50;2.30;;;;;;;;;;5089516;28;20217;-65
2021/10/20 01:53:13;;;;;;;2.43;2.23;;;;;;;;;;5085942;28;20665;-65
2021/10/20 01:55:45;;;;;;;4.73;2.23;;;;;;;;;;5088387;28;20208;-64
2021/10/20 01:58:16;;;;;;;2.33;2.13;;;;;;;;;;5087877;28;20197;-65
2021/10/20 02:00:48;;;;;;;2.17;1.97;;;;;;;;;;5083983;28;20214;-64
2021/10/20 02:03:19;;;;;;;2.23;2.03;;;;;;;;;;5087635;28;20197;-64
2021/10/20 02:05:54;;;;;;;2.40;2.17;;;;;;;;;;5088892;28;20263;-64
2021/10/20 02:08:23;;;;;;;2.73;2.50;;;;;;;;;;5086733;28;20577;-64
2021/10/20 02:10:54;;;;;;;2.43;2.23;;;;;;;;;;5086961;28;20232;-64
2021/10/20 02:13:27;;;;;;;2.30;2.10;;;;;;;;;;5084045;28;20526;-64
2021/10/20 02:15:58;;;;;;;2.30;2.07;;;;;;;;;;5098014;27;20193;-64
2021/10/20 02:18:29;;;;;;;2.17;2.00;;;;;;;;;;5089095;28;20189;-64
2021/10/20 02:20:59;;;;;;;2.43;2.23;;;;;;;;;;5086357;28;20213;-64
2021/10/20 02:23:32;;;;;;;3.20;2.00;;;;;;;;;;5083600;27;20232;-64
2021/10/20 02:26:00;;;;;;;2.30;2.10;;;;;;;;;;5071849;28;20209;-65
2021/10/20 02:28:32;;;;;;;2.30;2.10;;;;;;;;;;5091523;28;20285;-67
2021/10/20 02:31:01;;;;;;;2.30;2.10;;;;;;;;;;5087130;28;20682;-64
2021/10/20 02:33:42;;;;;;;2.50;2.30;;;;;;;;;;5088953;28;20224;-64
2021/10/20 02:36:12;;;;;;;3.30;2.13;;;;;;;;;;5082889;28;20201;-64
2021/10/20 02:38:53;;;;;;;2.37;2.17;;;;;;;;;;5080270;28;20203;-64
2021/10/20 02:41:26;;;;;;;2.40;1.93;;;;;;;;;;5087921;28;20208;-64
2021/10/20 02:43:57;;;;;;;2.23;2.03;;;;;;;;;;5090867;28;20555;-64
2021/10/20 02:46:27;;;;;;;2.30;2.10;;;;;;;;;;5100789;28;20204;-64
2021/10/20 02:49:00;;;;;;;2.30;2.10;;;;;;;;;;5086956;28;20586;-64
2021/10/20 02:51:30;;;;;;;2.30;2.10;;;;;;;;;;5085345;28;20655;-64
2021/10/20 02:54:02;;;;;;;2.50;1.97;;;;;;;;;;5070245;28;20228;-64
2021/10/20 02:56:34;;;;;;;2.33;2.00;;;;;;;;;;5090188;28;20205;-64
2021/10/20 02:59:03;;;;;;;2.50;2.30;;;;;;;;;;5071291;28;20266;-64
2021/10/20 03:01:39;;;;;;;2.10;1.90;;;;;;;;;;5056489;28;20213;-64
2021/10/20 03:04:10;;;;;;;2.30;2.10;;;;;;;;;;5071213;28;20641;-64
2021/10/20 03:06:40;;;;;;;2.37;2.03;;;;;;;;;;5079279;28;20218;-65
2021/10/20 03:09:10;;;;;;;2.60;2.27;;;;;;;;;;5089912;28;20211;-64
2021/10/20 03:11:42;;;;;;;2.43;2.23;;;;;;;;;;5096850;28;20260;-64
2021/10/20 03:14:14;;;;;;;2.40;2.20;;;;;;;;;;5069675;28;20201;-64
2021/10/20 03:16:48;;;;;;;2.37;2.17;;;;;;;;;;5087508;28;20610;-64
2021/10/20 03:19:19;;;;;;;3.60;1.90;;;;;;;;;;5075329;28;20555;-64
2021/10/20 03:21:47;;;;;;;3.23;2.50;;;;;;;;;;5056692;28;20212;-64
2021/10/20 03:24:16;;;;;;;2.20;2.00;;;;;;;;;;5058765;28;20220;-64
2021/10/20 03:26:49;;;;;;;2.40;2.20;;;;;;;;;;5067114;28;20194;-64
2021/10/20 03:29:24;;;;;;;2.23;2.03;;;;;;;;;;5068517;28;20207;-64
2021/10/20 03:31:56;;;;;;;2.50;2.30;;;;;;;;;;5072185;28;20223;-64
2021/10/20 03:34:28;;;;;;;2.20;2.00;;;;;;;;;;5086080;28;20242;-64
2021/10/20 03:37:01;;;;;;;2.47;2.27;;;;;;;;;;5071271;28;20522;-65
2021/10/20 03:39:32;;;;;;;2.40;2.10;;;;;;;;;;5068132;28;20267;-64
2021/10/20 03:42:03;;;;;;;2.27;2.07;;;;;;;;;;5066630;28;20542;-64
2021/10/20 03:44:34;;;;;;;3.73;2.30;;;;;;;;;;5067603;28;20208;-64
2021/10/20 03:47:05;;;;;;;2.33;2.13;;;;;;;;;;5065966;28;20203;-64
2021/10/20 03:49:35;;;;;;;2.20;2.00;;;;;;;;;;5059986;28;20244;-64
2021/10/20 03:52:03;;;;;;;2.50;2.30;;;;;;;;;;5054987;28;20225;-64
2021/10/20 03:54:33;;;;;;;2.50;2.30;;;;;;;;;;5055408;28;20213;-65
2021/10/20 03:57:06;;;;;;;2.47;2.27;;;;;;;;;;5068970;28;20537;-64
2021/10/20 03:59:40;;;;;;;5.13;2.37;;;;;;;;;;5061366;28;20194;-65
2021/10/20 04:02:13;;;;;;;2.57;2.37;;;;;;;;;;5053863;28;20703;-64
2021/10/20 04:04:44;;;;;;;2.57;2.37;;;;;;;;;;5066626;28;20209;-64
2021/10/20 04:07:14;;;;;;;2.40;2.20;;;;;;;;;;5071131;28;20209;-65
2021/10/20 04:09:45;;;;;;;4.37;1.87;;;;;;;;;;5070913;28;20205;-65
2021/10/20 04:12:20;;;;;;;2.30;2.10;;;;;;;;;;5083046;28;20286;-70
2021/10/20 04:14:51;;;;;;;2.43;2.23;;;;;;;;;;5071462;28;20189;-64
2021/10/20 04:17:22;;;;;;;2.40;2.20;;;;;;;;;;5067801;28;20205;-65
2021/10/20 04:19:51;;;;;;;2.10;1.90;;;;;;;;;;5075490;28;20205;-65
2021/10/20 04:22:25;;;;;;;1.83;1.73;;;;;;;;;;5080329;28;20228;-65
2021/10/20 04:24:56;;;;;;;6.70;2.30;;;;;;;;;;5064676;28;20206;-64
2021/10/20 04:27:29;;;;;;;2.20;2.00;;;;;;;;;;5062400;28;20205;-64
2021/10/20 04:29:59;;;;;;;2.40;2.20;;;;;;;;;;5068528;28;20258;-64
2021/10/20 04:32:32;;;;;;;2.87;2.00;;;;;;;;;;5070390;28;20220;-67
2021/10/20 04:35:02;;;;;;;2.77;2.10;;;;;;;;;;5069825;28;20197;-67
2021/10/20 04:37:35;;;;;;;3.30;2.07;;;;;;;;;;5060186;28;20239;-67
2021/10/20 04:40:08;;;;;;;4.97;2.90;;;;;;;;;;5069098;28;20214;-67
2021/10/20 04:42:40;;;;;;;3.30;2.30;;;;;;;;;;5053416;28;20462;-65
2021/10/20 04:45:12;;;;;;;6.17;2.60;;;;;;;;;;5048468;28;20193;-67
2021/10/20 04:47:43;;;;;;;4.27;2.50;;;;;;;;;;5070607;28;20219;-64
2021/10/20 04:50:14;;;;;;;2.77;2.20;;;;;;;;;;5070705;28;20202;-64
2021/10/20 04:52:46;;;;;;;2.63;2.43;;;;;;;;;;5067598;28;20249;-64
2021/10/20 04:55:17;;;;;;;2.67;2.40;;;;;;;;;;5068542;28;20197;-64
2021/10/20 04:57:50;;;;;;;2.53;2.33;;;;;;;;;;5063841;28;20198;-64
2021/10/20 05:00:23;;;;;;;2.63;2.43;;;;;;;;;;5047143;28;20202;-65
2021/10/20 05:02:55;;;;;;;2.30;2.10;;;;;;;;;;5039780;28;20233;-65
2021/10/20 05:05:29;;;;;;;2.47;2.27;;;;;;;;;;5059692;28;20201;-65
2021/10/20 05:07:58;;;;;;;3.67;2.30;;;;;;;;;;5074244;28;20218;-64
2021/10/20 05:10:29;;;;;;;2.83;2.60;;;;;;;;;;5065380;28;20205;-64
2021/10/20 05:13:02;;;;;;;3.67;2.60;;;;;;;;;;5066643;28;20687;-64
2021/10/20 05:15:32;;;;;;;4.13;2.40;;;;;;;;;;5049732;28;20648;-64
2021/10/20 05:18:05;;;;;;;3.07;2.73;;;;;;;;;;5068129;28;20240;-65
2021/10/20 05:20:34;;;;;;;4.77;3.00;;;;;;;;;;5070567;28;20202;-65
2021/10/20 05:23:04;;;;;;;4.43;3.20;;;;;;;;;;5059426;28;20272;-65
2021/10/20 05:25:36;;;;;;;3.00;2.70;;;;;;;;;;5064350;28;20294;-65
2021/10/20 05:28:06;;;;;;;3.77;3.10;;;;;;;;;;5075675;28;20210;-66
2021/10/20 05:30:37;;;;;;;3.83;3.37;;;;;;;;;;5071948;28;20212;-65
2021/10/20 05:33:06;;;;;;;3.40;3.10;;;;;;;;;;5062779;28;20286;-65
2021/10/20 05:35:38;;;;;;;4.33;3.47;;;;;;;;;;5063992;28;20213;-66
2021/10/20 05:38:11;;;;;;;3.50;3.20;;;;;;;;;;5068955;28;20205;-66
2021/10/20 05:40:43;;;;;;;3.90;3.50;;;;;;;;;;5071272;28;20205;-66
2021/10/20 05:43:19;;;;;;;4.90;3.43;;;;;;;;;;5066179;28;20274;-69
2021/10/20 05:45:55;;;;;;;3.30;3.00;;;;;;;;;;5067880;28;20497;-68
2021/10/20 05:48:25;;;;;;;4.37;3.50;;;;;;;;;;5048872;28;20214;-67
2021/10/20 05:50:55;;;;;;;3.33;3.03;;;;;;;;;;5069555;28;20198;-68
2021/10/20 05:53:25;;;;;;;4.23;3.37;;;;;;;;;;5049348;28;20225;-67
2021/10/20 05:56:02;;;;;;;3.40;3.10;;;;;;;;;;5069101;28;20925;-68
2021/10/20 05:58:37;;;;;;;3.63;3.03;;;;;;;;;;5071796;28;20652;-66
2021/10/20 06:01:10;;;;;;;3.53;3.23;;;;;;;;;;5058621;28;20194;-68
2021/10/20 06:03:44;;;;;;;3.40;3.00;;;;;;;;;;5069020;28;20246;-66
2021/10/20 06:06:17;;;;;;;5.47;3.10;;;;;;;;;;5078276;28;20284;-67
2021/10/20 06:08:50;;;;;;;4.63;3.00;;;;;;;;;;5067477;28;20190;-68
2021/10/20 06:11:18;;;;;;;3.30;3.00;;;;;;;;;;5065606;28;20252;-67
2021/10/20 06:13:48;;;;;;;3.73;3.23;;;;;;;;;;5069734;28;20275;-70
2021/10/20 06:16:17;;;;;;;6.07;3.47;;;;;;;;;;5075284;28;20269;-70
2021/10/20 06:18:48;;;;;;;5.73;3.47;;;;;;;;;;5048233;28;20221;-69
2021/10/20 06:21:20;;;;;;;5.30;3.47;;;;;;;;;;5076799;28;20219;-67
2021/10/20 06:23:51;;;;;;;9.10;3.80;;;;;;;;;;5066941;28;20232;-67
2021/10/20 06:26:34;;;;;;;5.17;2.93;;;;;;;;;;5069271;28;20193;-66
2021/10/20 06:29:08;;;;;;;11.53;3.67;;;;;;;;;;5065557;28;20201;-68
2021/10/20 06:31:41;;;;;;;3.57;3.27;;;;;;;;;;5050348;28;20275;-70
2021/10/20 06:34:12;;;;;;;6.13;3.60;;;;;;;;;;5067302;28;20201;-66
2021/10/20 06:36:45;;;;;;;5.30;3.63;;;;;;;;;;5065596;28;20198;-68
2021/10/20 06:39:20;;;;;;;6.13;3.50;;;;;;;;;;5062587;28;20228;-68
2021/10/20 06:42:05;;;;;;;4.00;3.60;;;;;;;;;;5068020;28;20210;-67
2021/10/20 06:44:35;;;;;;;3.60;3.30;;;;;;;;;;5061355;28;20659;-69
2021/10/20 06:47:05;;;;;;;5.27;3.50;;;;;;;;;;5068041;28;20246;-68
2021/10/20 06:49:35;;;;;;;4.37;3.53;;;;;;;;;;5059980;28;20202;-69
2021/10/20 06:52:05;;;;;;;6.33;3.70;;;;;;;;;;5066992;28;20246;-70
2021/10/20 06:54:37;;;;;;;5.57;3.50;;;;;;;;;;5066959;28;21491;-69
2021/10/20 06:57:09;;;;;;;3.93;3.57;;;;;;;;;;5065920;28;20225;-69
2021/10/20 06:59:39;;;;;;;4.50;3.47;;;;;;;;;;5044882;28;20205;-69
2021/10/20 07:02:12;;;;;;;5.60;3.67;;;;;;;;;;5070338;28;20279;-68
2021/10/20 07:04:46;;;;;;;13.17;3.83;;;;;;;;;;5051263;28;20213;-72
2021/10/20 07:07:13;;;;;;;4.80;3.60;;;;;;;;;;5071406;28;20212;-72
2021/10/20 07:09:44;;;;;;;4.00;3.67;;;;;;;;;;5074528;28;20631;-71
2021/10/20 07:12:15;;;;;;;4.20;3.80;;;;;;;;;;5073270;28;20599;-69
2021/10/20 07:14:48;;;;;;;4.57;4.10;;;;;;;;;;5070927;28;20196;-69
2021/10/20 07:17:20;;;;;;;11.03;3.37;;;;;;;;;;5065928;28;20512;-69
2021/10/20 07:19:52;;;;;;;4.20;3.80;;;;;;;;;;5071744;28;20198;-68
2021/10/20 07:22:22;;;;;;;4.70;3.73;;;;;;;;;;5073217;28;20825;-67
2021/10/20 07:24:53;;;;;;;5.83;3.90;;;;;;;;;;5083641;28;20236;-67
2021/10/20 07:27:25;;;;;;;4.80;4.10;;;;;;;;;;5084774;28;20209;-67
2021/10/20 07:29:57;;;;;;;4.53;4.13;;;;;;;;;;5072583;28;20185;-67
2021/10/20 07:32:33;;;;;;;5.87;4.27;;;;;;;;;;5091577;28;20231;-67
2021/10/20 07:35:03;;;;;;;4.10;3.70;;;;;;;;;;5088957;28;20670;-67
2021/10/20 07:37:33;;;;;;;4.80;4.07;;;;;;;;;;5083715;28;20284;-67
2021/10/20 07:40:08;;;;;;;5.30;4.30;;;;;;;;;;5083424;28;20205;-67
2021/10/20 07:42:51;;;;;;;4.40;4.00;;;;;;;;;;5091720;28;20292;-68
2021/10/20 07:45:25;;;;;;;5.63;4.10;;;;;;;;;;5083057;28;20221;-67
2021/10/20 07:48:11;;;;;;;7.10;4.43;;;;;;;;;;5086352;28;20217;-68
2021/10/20 07:50:44;;;;;;;6.20;4.20;;;;;;;;;;5059001;28;20224;-68
2021/10/20 07:53:16;;;;;;;4.40;4.00;;;;;;;;;;5089171;28;20231;-67
2021/10/20 07:55:48;;;;;;;6.53;4.00;;;;;;;;;;5089680;28;20185;-68
2021/10/20 07:58:20;;;;;;;5.27;4.17;;;;;;;;;;5066373;28;20607;-67
2021/10/20 08:00:52;;;;;;;6.07;4.10;;;;;;;;;;5086742;28;20212;-67
2021/10/20 08:03:22;;;;;;;4.37;3.90;;;;;;;;;;5088050;28;20205;-67
2021/10/20 08:05:52;;;;;;;6.17;4.10;;;;;;;;;;5091716;28;20196;-68
2021/10/20 08:08:22;;;;;;;4.83;4.30;;;;;;;;;;5089635;28;20193;-68
2021/10/20 08:10:54;;;;;;;4.33;3.63;;;;;;;;;;5087556;28;20196;-68
2021/10/20 08:13:25;;;;;;;4.50;4.10;;;;;;;;;;5081107;28;20232;-70
2021/10/20 08:16:17;;;;;;;5.07;3.50;;;;;;;;;;5089960;28;20201;-67
2021/10/20 08:18:47;;;;;;;11.17;3.97;;;;;;;;;;5087770;28;20284;-67
2021/10/20 08:21:19;;;;;;;8.43;4.23;;;;;;;;;;5073049;28;20219;-69
2021/10/20 08:23:53;;;;;;;9.80;3.73;;;;;;;;;;5069652;28;20278;-69
2021/10/20 08:26:42;;;;;;;5.17;3.80;;;;;;;;;;5069571;28;20638;-66
2021/10/20 08:29:12;;;;;;;5.20;3.87;;;;;;;;;;5066469;28;20553;-71
2021/10/20 08:31:41;;;;;;;9.30;3.73;;;;;;;;;;5069112;28;20752;-68
2021/10/20 08:34:11;;;;;;;4.40;3.70;;;;;;;;;;5068399;28;20702;-68
2021/10/20 08:36:43;;;;;;;7.60;3.20;;;;;;;;;;5064146;28;20213;-68
2021/10/20 08:39:10;;;;;;;3.80;3.47;;;;;;;;;;5051784;28;20213;-68
2021/10/20 08:41:38;;;;;;;5.40;3.27;;;;;;;;;;5065394;28;20220;-68
2021/10/20 08:44:10;;;;;;;6.50;3.87;;;;;;;;;;5070223;28;20193;-67
2021/10/20 08:46:41;;;;;;;18.90;3.60;;;;;;;;;;5068482;28;20256;-68
2021/10/20 08:49:11;;;;;;;4.37;3.57;;;;;;;;;;5061040;28;20210;-67
2021/10/20 08:51:42;;;;;;;6.37;3.20;;;;;;;;;;5054648;28;20201;-70
2021/10/20 08:54:16;;;;;;;27.97;8.70;;;;;;;;;;5069286;28;20808;-66
2021/10/20 08:56:50;;;;;;;45.50;10.47;;;;;;;;;;5069310;28;20206;-69
2021/10/20 08:59:23;;;;;;;20.80;7.97;;;;;;;;;;5046821;28;20200;-68
2021/10/20 09:01:53;;;;;;;29.13;7.53;;;;;;;;;;5068866;28;20201;-66
2021/10/20 09:04:26;;;;;;;26.47;7.83;;;;;;;;;;5069074;28;20189;-67
2021/10/20 09:06:58;;;;;;;17.43;7.53;;;;;;;;;;5068330;28;20212;-69
2021/10/20 09:09:32;;;;;;;19.43;6.97;;;;;;;;;;5066319;28;20288;-69
2021/10/20 09:12:10;;;;;;;22.17;7.43;;;;;;;;;;5072440;28;20242;-66
2021/10/20 09:14:42;;;;;;;19.30;6.50;;;;;;;;;;5051579;28;20209;-66
2021/10/20 09:17:23;;;;;;;21.97;8.07;;;;;;;;;;5081326;28;20633;-68
2021/10/20 09:19:59;;;;;;;11.53;6.47;;;;;;;;;;5047946;28;20281;-69
2021/10/20 09:22:28;;;;;;;17.57;6.20;;;;;;;;;;5041558;28;20551;-70
2021/10/20 09:25:21;;;;;;;12.23;6.33;;;;;;;;;;5078090;28;20216;-72
2021/10/20 09:27:54;;;;;;;13.63;6.30;;;;;;;;;;5069667;28;20202;-70
2021/10/20 09:30:29;;;;;;;14.17;6.47;;;;;;;;;;5086999;28;20629;-70
2021/10/20 09:33:02;;;;;;;10.60;5.60;;;;;;;;;;5070937;28;20224;-73
2021/10/20 09:35:34;;;;;;;8.17;5.20;;;;;;;;;;5080316;28;20193;-70
2021/10/20 09:38:02;;;;;;;11.27;5.73;;;;;;;;;;5088186;28;20674;-70
2021/10/20 09:40:37;;;;;;;10.33;5.60;;;;;;;;;;5084410;28;20208;-71
2021/10/20 09:43:15;;;;;;;10.53;6.13;;;;;;;;;;5079643;28;20667;-69
2021/10/20 09:45:46;;;;;;;7.70;5.03;;;;;;;;;;5070831;28;20759;-70
2021/10/20 09:48:21;;;;;;;7.63;5.20;;;;;;;;;;5084460;28;20674;-69
2021/10/20 09:51:02;;;;;;;8.13;4.83;;;;;;;;;;5071626;28;20220;-68
2021/10/20 09:53:34;;;;;;;5.97;4.77;;;;;;;;;;5086729;28;20219;-69
2021/10/20 09:56:34;;;;;;;7.93;4.87;;;;;;;;;;5074462;28;20193;-68
2021/10/20 09:59:09;;;;;;;6.83;4.77;;;;;;;;;;5088452;28;20185;-67
2021/10/20 10:01:54;;;;;;;6.13;4.63;;;;;;;;;;5057197;28;20303;-66
2021/10/20 10:04:25;;;;;;;8.47;5.10;;;;;;;;;;5088783;28;20559;-68
2021/10/20 10:06:57;;;;;;;13.37;4.80;;;;;;;;;;5089848;28;20239;-67
2021/10/20 10:09:39;;;;;;;7.53;4.90;;;;;;;;;;5067330;28;20276;-67
2021/10/20 10:12:15;;;;;;;10.45;5.55;;;;;;;;;;5083483;27;20228;-67
2021/10/20 10:14:51;;;;;;;9.13;4.60;;;;;;;;;;5086188;28;20441;-66
2021/10/20 10:17:49;;;;;;;10.27;5.03;;;;;;;;;;5079393;28;20188;-67
2021/10/20 10:20:18;;;;;;;7.87;4.63;;;;;;;;;;5085849;28;20184;-68
2021/10/20 10:22:48;;;;;;;7.10;4.60;;;;;;;;;;5103391;28;20232;-69
2021/10/20 10:25:22;;;;;;;7.13;4.73;;;;;;;;;;5065286;28;20305;-67
2021/10/20 10:28:08;;;;;;;7.60;4.67;;;;;;;;;;5076162;28;20279;-68
2021/10/20 10:30:56;;;;;;;6.30;4.10;;;;;;;;;;5085387;28;20204;-71
2021/10/20 10:33:30;;;;;;;7.97;5.00;;;;;;;;;;5080808;28;20217;-69
2021/10/20 10:36:13;;;;;;;4.80;3.93;;;;;;;;;;5083594;28;20208;-67
2021/10/20 10:39:05;;;;;;;5.70;4.27;;;;;;;;;;5071377;28;20196;-67
2021/10/20 10:41:46;;;;;;;5.97;4.03;;;;;;;;;;5084843;28;20209;-73
2021/10/20 10:44:17;;;;;;;9.30;3.87;;;;;;;;;;5085417;28;20216;-68
2021/10/20 10:47:07;;;;;;;5.23;3.87;;;;;;;;;;5089735;28;20312;-70
2021/10/20 10:49:57;;;;;;;5.23;3.57;;;;;;;;;;5084646;28;20299;-70
2021/10/20 10:52:41;;;;;;;6.73;3.67;;;;;;;;;;5078841;28;20216;-69
2021/10/20 10:55:10;;;;;;;7.43;3.73;;;;;;;;;;5056584;28;20724;-69
2021/10/20 10:58:03;;;;;;;6.30;4.13;;;;;;;;;;5070443;28;20300;-68
2021/10/20 11:00:44;;;;;;;4.73;3.30;;;;;;;;;;5068484;28;20205;-70
2021/10/20 11:03:27;;;;;;;6.23;3.27;;;;;;;;;;5097810;28;20218;-70
2021/10/20 11:06:00;;;;;;;3.90;3.53;;;;;;;;;;5086995;28;20188;-72
2021/10/20 11:08:37;;;;;;;6.37;3.67;;;;;;;;;;5087958;28;20197;-70
2021/10/20 11:11:08;;;;;;;5.80;3.67;;;;;;;;;;5083707;28;20219;-70
2021/10/20 11:13:38;;;;;;;3.77;3.37;;;;;;;;;;5058482;28;20789;-70
2021/10/20 11:16:09;;;;;;;4.50;3.33;;;;;;;;;;5063481;28;20224;-71
2021/10/20 11:18:50;;;;;;;4.43;3.20;;;;;;;;;;5083101;28;20189;-68
2021/10/20 11:21:23;;;;;;;3.13;2.83;;;;;;;;;;5078969;28;20211;-68
2021/10/20 11:23:54;;;;;;;4.17;3.60;;;;;;;;;;5078537;28;20649;-67
2021/10/20 11:26:38;;;;;;;4.43;2.70;;;;;;;;;;5077411;28;20232;-67
2021/10/20 11:29:20;;;;;;;4.10;3.37;;;;;;;;;;5079190;28;20223;-68
2021/10/20 11:31:57;;;;;;;5.90;3.23;;;;;;;;;;5089835;28;20205;-69
2021/10/20 11:34:31;;;;;;;4.33;3.53;;;;;;;;;;5081468;28;20253;-69
2021/10/20 11:37:07;;;;;;;3.87;2.83;;;;;;;;;;5085944;28;20216;-68
2021/10/20 11:39:51;;;;;;;3.90;3.30;;;;;;;;;;5070928;28;20973;-67
2021/10/20 11:42:23;;;;;;;4.57;3.10;;;;;;;;;;5093716;28;20188;-68
2021/10/20 11:45:04;;;;;;;4.37;3.13;;;;;;;;;;5074406;28;20206;-70
2021/10/20 11:47:39;;;;;;;3.13;2.67;;;;;;;;;;5082487;28;20205;-69
2021/10/20 11:50:16;;;;;;;3.20;2.90;;;;;;;;;;5091112;28;20207;-68
2021/10/20 11:52:57;;;;;;;3.60;3.30;;;;;;;;;;5073907;28;20227;-66
2021/10/20 11:55:29;;;;;;;3.77;2.90;;;;;;;;;;5087107;28;20216;-68
2021/10/20 11:57:57;;;;;;;3.40;2.97;;;;;;;;;;5083481;28;20181;-71
2021/10/20 12:00:26;;;;;;;4.47;3.03;;;;;;;;;;5089660;28;20236;-68
2021/10/20 12:03:01;;;;;;;2.70;2.50;;;;;;;;;;5087496;28;20205;-67
2021/10/20 12:05:33;;;;;;;3.13;2.83;;;;;;;;;;5071516;28;20552;-67
2021/10/20 12:08:07;;;;;;;3.50;3.20;;;;;;;;;;5088845;28;20276;-67
2021/10/20 12:10:36;;;;;;;3.23;2.93;;;;;;;;;;5084709;28;20217;-67
2021/10/20 12:13:25;;;;;;;3.93;3.07;;;;;;;;;;5082837;28;20264;-68
2021/10/20 12:16:11;;;;;;;3.00;2.70;;;;;;;;;;5098184;27;20237;-68
2021/10/20 12:18:47;;;;;;;3.00;2.60;;;;;;;;;;5086901;28;20201;-68
2021/10/20 12:21:22;;;;;;;3.70;3.40;;;;;;;;;;5086893;28;20626;-70
2021/10/20 12:23:52;;;;;;;3.50;3.20;;;;;;;;;;5071835;28;20226;-67
2021/10/20 12:26:21;;;;;;;3.20;2.87;;;;;;;;;;5067081;28;20189;-69
2021/10/20 12:28:52;;;;;;;3.43;3.10;;;;;;;;;;5066696;28;20675;-70
2021/10/20 12:31:27;;;;;;;3.43;3.07;;;;;;;;;;5062399;28;20205;-68
2021/10/20 12:33:57;;;;;;;3.47;2.60;;;;;;;;;;5067317;28;20302;-69
2021/10/20 12:36:31;;;;;;;3.47;2.90;;;;;;;;;;5064707;28;20210;-71
2021/10/20 12:39:01;;;;;;;5.27;3.10;;;;;;;;;;5079207;28;20213;-68
2021/10/20 12:41:31;;;;;;;4.13;3.20;;;;;;;;;;5065193;28;20201;-66
2021/10/20 12:44:05;;;;;;;3.03;2.60;;;;;;;;;;5067910;28;20209;-67
2021/10/20 12:46:42;;;;;;;4.83;3.00;;;;;;;;;;5065882;28;20208;-67
2021/10/20 12:49:15;;;;;;;3.40;2.87;;;;;;;;;;5043670;28;20217;-67
2021/10/20 12:51:46;;;;;;;7.30;3.40;;;;;;;;;;5069555;28;20459;-68
2021/10/20 12:54:38;;;;;;;4.53;2.97;;;;;;;;;;5070457;28;21507;-68
2021/10/20 12:57:15;;;;;;;3.43;2.67;;;;;;;;;;5059515;28;20224;-69
2021/10/20 12:59:48;;;;;;;4.33;3.07;;;;;;;;;;5065249;28;20221;-71
2021/10/20 13:02:21;;;;;;;3.40;2.80;;;;;;;;;;5069389;28;20608;-68
2021/10/20 13:05:06;;;;;;;4.40;2.73;;;;;;;;;;5066465;28;20189;-69
2021/10/20 13:07:38;;;;;;;3.53;3.07;;;;;;;;;;5048064;28;20322;-69
2021/10/20 13:10:09;;;;;;;4.70;3.00;;;;;;;;;;5066172;28;20209;-67
2021/10/20 13:12:47;;;;;;;7.80;3.27;;;;;;;;;;5043583;28;20217;-67
2021/10/20 13:15:21;;;;;;;6.77;2.80;;;;;;;;;;5072027;28;20209;-67
2021/10/20 13:17:51;;;;;;;3.83;3.00;;;;;;;;;;5069674;28;20205;-67
2021/10/20 13:20:22;;;;;;;4.97;3.10;;;;;;;;;;5056204;28;20194;-67
2021/10/20 13:22:56;;;;;;;3.37;3.00;;;;;;;;;;5065348;28;20226;-68
2021/10/20 13:25:25;;;;;;;3.40;3.10;;;;;;;;;;5054010;28;20217;-66
2021/10/20 13:28:05;;;;;;;3.87;2.97;;;;;;;;;;5062309;28;20241;-66
2021/10/20 13:30:39;;;;;;;6.57;3.30;;;;;;;;;;5057813;28;20608;-66
2021/10/20 13:33:07;;;;;;;3.93;2.87;;;;;;;;;;5050643;28;20263;-65
2021/10/20 13:36:00;;;;;;;3.43;3.00;;;;;;;;;;5063595;28;20197;-67
2021/10/20 13:38:32;;;;;;;3.97;2.90;;;;;;;;;;5058834;28;20201;-66
2021/10/20 13:41:05;;;;;;;3.20;3.00;;;;;;;;;;5059155;28;20189;-66
2021/10/20 13:43:46;;;;;;;4.87;2.97;;;;;;;;;;5058312;28;20256;-65
2021/10/20 13:46:13;;;;;;;3.07;2.87;;;;;;;;;;5056821;28;20538;-66
2021/10/20 13:49:05;;;;;;;2.90;2.63;;;;;;;;;;5038635;28;20647;-65
2021/10/20 13:51:39;;;;;;;3.10;2.80;;;;;;;;;;5059225;28;20749;-65
2021/10/20 13:54:16;;;;;;;3.30;3.00;;;;;;;;;;5053578;28;20249;-65
2021/10/20 13:56:46;;;;;;;3.10;2.80;;;;;;;;;;5078065;28;20209;-66
2021/10/20 13:59:25;;;;;;;4.13;3.13;;;;;;;;;;5048722;28;20205;-66
2021/10/20 14:01:56;;;;;;;3.33;3.03;;;;;;;;;;5046502;28;20204;-66
2021/10/20 14:04:28;;;;;;;3.40;3.10;;;;;;;;;;5078979;28;20210;-66
2021/10/20 14:07:00;;;;;;;2.90;2.70;;;;;;;;;;5069477;28;20205;-67
2021/10/20 14:09:28;;;;;;;3.33;2.60;;;;;;;;;;5062482;28;20223;-66
2021/10/20 14:12:04;;;;;;;3.50;3.20;;;;;;;;;;5062570;28;20218;-65
2021/10/20 14:14:35;;;;;;;4.67;3.03;;;;;;;;;;5058760;28;20229;-66
2021/10/20 14:17:13;;;;;;;5.27;3.43;;;;;;;;;;5073152;28;20551;-69
2021/10/20 14:19:46;;;;;;;55.90;14.10;;;;;;;;;;5077069;28;20202;-71
2021/10/20 14:22:22;;;;;;;103.40;25.47;;;;;;;;;;5060685;28;20224;-66
2021/10/20 14:24:55;;;;;;;107.73;24.60;;;;;;;;;;5077267;28;20201;-67
2021/10/20 14:27:25;;;;;;;84.30;19.97;;;;;;;;;;5057851;28;20201;-68
2021/10/20 14:29:58;;;;;;;64.07;17.77;;;;;;;;;;5061997;28;20202;-68
2021/10/20 14:32:48;;;;;;;59.23;16.20;;;;;;;;;;5034839;28;20193;-69
2021/10/20 14:35:19;;;;;;;39.13;13.23;;;;;;;;;;5065494;28;20225;-69
2021/10/20 14:37:51;;;;;;;34.33;13.73;;;;;;;;;;5074939;28;20597;-68
2021/10/20 14:40:23;;;;;;;39.27;13.97;;;;;;;;;;5068037;28;20655;-70
2021/10/20 14:42:54;;;;;;;32.17;12.57;;;;;;;;;;5068222;28;20626;-70
2021/10/20 14:45:25;;;;;;;27.70;11.50;;;;;;;;;;5064973;28;20220;-67
2021/10/20 14:47:59;;;;;;;26.67;10.80;;;;;;;;;;5051323;28;20220;-67
2021/10/20 14:50:31;;;;;;;26.73;10.80;;;;;;;;;;5063372;28;20210;-67
2021/10/20 14:53:02;;;;;;;19.73;9.53;;;;;;;;;;5052804;28;20225;-67
2021/10/20 14:55:34;;;;;;;18.60;9.33;;;;;;;;;;5064708;28;20687;-67
2021/10/20 14:58:05;;;;;;;18.13;8.57;;;;;;;;;;5063791;28;20226;-67
2021/10/20 15:00:52;;;;;;;18.53;8.63;;;;;;;;;;5053349;28;20202;-68
2021/10/20 15:03:29;;;;;;;16.87;8.00;;;;;;;;;;5070592;28;20226;-68
2021/10/20 15:06:00;;;;;;;16.40;7.77;;;;;;;;;;5052303;28;20643;-68
2021/10/20 15:08:32;;;;;;;16.37;6.53;;;;;;;;;;5066167;28;20305;-68
2021/10/20 15:11:03;;;;;;;12.73;7.13;;;;;;;;;;5070090;28;20250;-70
2021/10/20 15:13:33;;;;;;;18.90;7.13;;;;;;;;;;5044686;28;20475;-70
2021/10/20 15:16:04;;;;;;;16.40;7.23;;;;;;;;;;5054909;28;20214;-68
2021/10/20 15:18:55;;;;;;;8.30;6.40;;;;;;;;;;5058385;28;20230;-68